Time;durP1;ratioP1;P1;durP2;ratioP2;P2;SDS_P1;SDS_P2;PMS_P1;PMS_P2;Temp;Humidity;BMP_temperature;BMP_pressure;BME280_temperature;BME280_humidity;BME280_pressure;Samples;Min_cycle;Max_cycle;Signal;HPM_P1;HPM_P2
2022/09/26 00:01:09;;;;;;;6.78;3.58;;;;;;;;;;5046619;28;20117;-76
2022/09/26 00:03:36;;;;;;;3.53;3.00;;;;;;;;;;5047451;28;20040;-76
2022/09/26 00:06:02;;;;;;;4.10;3.17;;;;;;;;;;5047986;28;20063;-76
2022/09/26 00:08:29;;;;;;;4.78;3.38;;;;;;;;;;5046130;28;20505;-76
2022/09/26 00:10:57;;;;;;;6.20;3.20;;;;;;;;;;5047752;28;20061;-76
2022/09/26 00:13:23;;;;;;;5.07;3.08;;;;;;;;;;5047212;28;20424;-76
2022/09/26 00:15:49;;;;;;;4.22;3.00;;;;;;;;;;5047682;28;20037;-76
2022/09/26 00:18:15;;;;;;;6.63;3.03;;;;;;;;;;5047761;28;20013;-76
2022/09/26 00:20:41;;;;;;;7.63;3.30;;;;;;;;;;5046043;28;20111;-76
2022/09/26 00:23:08;;;;;;;3.05;2.60;;;;;;;;;;5047263;28;20641;-75
2022/09/26 00:25:34;;;;;;;8.73;2.60;;;;;;;;;;5047275;28;21028;-76
2022/09/26 00:28:00;;;;;;;4.80;3.50;;;;;;;;;;5047249;28;20123;-76
2022/09/26 00:30:26;;;;;;;4.60;2.83;;;;;;;;;;5045411;28;20029;-75
2022/09/26 00:32:52;;;;;;;4.10;2.83;;;;;;;;;;5046809;28;20437;-76
2022/09/26 00:35:19;;;;;;;4.63;2.78;;;;;;;;;;5047300;28;20031;-75
2022/09/26 00:37:45;;;;;;;3.50;2.67;;;;;;;;;;5047960;28;20021;-76
2022/09/26 00:40:12;;;;;;;7.05;3.40;;;;;;;;;;5047287;28;20111;-76
2022/09/26 00:42:38;;;;;;;4.25;2.40;;;;;;;;;;5044890;28;20021;-76
2022/09/26 00:45:04;;;;;;;5.45;3.20;;;;;;;;;;5047408;28;20175;-76
2022/09/26 00:47:45;;;;;;;7.43;3.25;;;;;;;;;;5046773;28;20094;-76
2022/09/26 00:50:24;;;;;;;4.15;2.53;;;;;;;;;;5046811;28;20086;-76
2022/09/26 00:52:58;;;;;;;5.15;3.00;;;;;;;;;;5045349;28;20032;-76
2022/09/26 00:55:29;;;;;;;6.78;2.80;;;;;;;;;;5046800;28;20032;-75
2022/09/26 00:58:24;;;;;;;3.42;2.78;;;;;;;;;;5040459;28;20033;-75
2022/09/26 01:00:51;;;;;;;6.53;3.00;;;;;;;;;;5026150;28;20447;-76
2022/09/26 01:03:18;;;;;;;5.35;2.75;;;;;;;;;;5039758;28;20036;-75
2022/09/26 01:05:45;;;;;;;6.68;2.83;;;;;;;;;;5041388;28;20044;-76
2022/09/26 01:08:12;;;;;;;4.47;2.85;;;;;;;;;;5044908;28;20031;-76
2022/09/26 01:10:38;;;;;;;11.20;3.55;;;;;;;;;;5046513;28;20120;-75
2022/09/26 01:13:07;;;;;;;5.75;2.90;;;;;;;;;;5046600;28;20473;-76
2022/09/26 01:15:33;;;;;;;9.10;3.45;;;;;;;;;;5046687;28;20047;-75
2022/09/26 01:17:59;;;;;;;8.00;3.35;;;;;;;;;;5045311;28;20028;-75
2022/09/26 01:20:44;;;;;;;5.45;3.15;;;;;;;;;;5046193;28;20021;-75
2022/09/26 01:23:45;;;;;;;4.45;2.78;;;;;;;;;;5046679;28;20021;-75
2022/09/26 01:26:30;;;;;;;7.20;3.03;;;;;;;;;;5017588;28;20063;-75
2022/09/26 01:29:02;;;;;;;4.72;3.30;;;;;;;;;;5033020;28;20029;-74
2022/09/26 01:31:28;;;;;;;3.97;2.95;;;;;;;;;;5045947;28;20029;-74
2022/09/26 01:34:00;;;;;;;6.53;3.00;;;;;;;;;;5046277;28;20120;-75
2022/09/26 01:36:53;;;;;;;8.30;2.90;;;;;;;;;;5046396;28;20025;-74
2022/09/26 01:39:28;;;;;;;4.50;2.60;;;;;;;;;;5006500;28;20035;-74
2022/09/26 01:42:07;;;;;;;4.43;3.00;;;;;;;;;;5028388;28;20048;-74
2022/09/26 01:44:42;;;;;;;2.50;2.30;;;;;;;;;;5045812;28;20048;-74
2022/09/26 01:47:23;;;;;;;5.78;3.08;;;;;;;;;;5038523;28;20048;-75
2022/09/26 01:49:54;;;;;;;3.60;2.80;;;;;;;;;;5046154;28;20477;-74
2022/09/26 01:52:27;;;;;;;7.00;3.17;;;;;;;;;;5046131;28;20025;-75
2022/09/26 01:54:58;;;;;;;9.63;3.35;;;;;;;;;;5045702;28;20021;-75
2022/09/26 01:57:27;;;;;;;7.35;3.13;;;;;;;;;;5045965;28;20457;-76
2022/09/26 01:59:55;;;;;;;11.13;3.53;;;;;;;;;;5046094;28;20056;-76
2022/09/26 02:02:26;;;;;;;5.00;2.80;;;;;;;;;;5040061;28;20104;-76
2022/09/26 02:04:54;;;;;;;3.70;2.75;;;;;;;;;;5046045;28;20060;-75
2022/09/26 02:07:23;;;;;;;7.85;2.83;;;;;;;;;;5045811;28;20154;-76
2022/09/26 02:09:58;;;;;;;3.72;2.65;;;;;;;;;;5045267;28;20026;-76
2022/09/26 02:12:27;;;;;;;3.85;2.70;;;;;;;;;;5045284;28;20124;-76
2022/09/26 02:14:57;;;;;;;6.50;2.70;;;;;;;;;;5045435;28;20477;-75
2022/09/26 02:17:27;;;;;;;6.57;2.60;;;;;;;;;;5044779;28;20021;-75
2022/09/26 02:20:01;;;;;;;7.35;2.50;;;;;;;;;;5045643;28;20377;-76
2022/09/26 02:22:29;;;;;;;3.90;2.45;;;;;;;;;;5046265;28;20025;-76
2022/09/26 02:24:55;;;;;;;4.38;2.45;;;;;;;;;;5044026;28;20033;-76
2022/09/26 02:27:21;;;;;;;3.75;2.50;;;;;;;;;;5045148;28;20074;-76
2022/09/26 02:29:48;;;;;;;6.72;2.83;;;;;;;;;;5045515;28;20028;-76
2022/09/26 02:32:17;;;;;;;4.72;2.45;;;;;;;;;;5045576;28;20499;-75
2022/09/26 02:34:46;;;;;;;5.47;2.67;;;;;;;;;;5043840;28;20021;-76
2022/09/26 02:37:13;;;;;;;2.30;2.03;;;;;;;;;;5045830;28;20035;-75
2022/09/26 02:39:39;;;;;;;4.25;2.63;;;;;;;;;;5045161;28;20501;-76
2022/09/26 02:42:24;;;;;;;4.68;2.70;;;;;;;;;;5045588;28;20021;-75
2022/09/26 02:45:00;;;;;;;6.82;2.60;;;;;;;;;;5044041;28;20199;-77
2022/09/26 02:47:42;;;;;;;3.63;2.60;;;;;;;;;;5045536;28;20136;-76
2022/09/26 02:50:11;;;;;;;5.47;2.55;;;;;;;;;;5028021;28;20103;-76
2022/09/26 02:52:44;;;;;;;5.85;3.00;;;;;;;;;;5045395;28;20021;-76
2022/09/26 02:55:10;;;;;;;5.65;2.92;;;;;;;;;;5041655;28;20528;-75
2022/09/26 02:57:54;;;;;;;5.75;3.08;;;;;;;;;;5043329;28;20428;-76
2022/09/26 03:00:22;;;;;;;8.95;3.33;;;;;;;;;;5039825;28;20073;-76
2022/09/26 03:02:48;;;;;;;6.22;3.30;;;;;;;;;;5044331;28;20409;-76
2022/09/26 03:05:22;;;;;;;5.90;3.13;;;;;;;;;;5046628;28;20419;-76
2022/09/26 03:07:51;;;;;;;5.95;3.30;;;;;;;;;;5047193;28;20098;-76
2022/09/26 03:10:17;;;;;;;6.80;3.53;;;;;;;;;;5048489;28;20025;-75
2022/09/26 03:12:44;;;;;;;4.18;2.92;;;;;;;;;;5048522;28;20362;-76
2022/09/26 03:15:12;;;;;;;7.95;3.33;;;;;;;;;;5048789;28;20202;-76
2022/09/26 03:17:41;;;;;;;6.75;3.00;;;;;;;;;;5043120;28;20028;-76
2022/09/26 03:20:13;;;;;;;6.68;2.92;;;;;;;;;;5033278;28;20511;-76
2022/09/26 03:22:41;;;;;;;3.78;2.70;;;;;;;;;;5043539;28;20476;-76
2022/09/26 03:25:09;;;;;;;11.75;3.40;;;;;;;;;;5043725;28;20402;-76
2022/09/26 03:27:36;;;;;;;5.80;3.15;;;;;;;;;;5026318;28;20111;-76
2022/09/26 03:30:04;;;;;;;5.93;3.17;;;;;;;;;;5043504;28;20040;-76
2022/09/26 03:32:31;;;;;;;7.03;3.30;;;;;;;;;;5040949;28;20111;-76
2022/09/26 03:34:57;;;;;;;5.75;3.40;;;;;;;;;;5043037;28;20036;-75
2022/09/26 03:37:23;;;;;;;4.95;3.00;;;;;;;;;;5043626;28;20021;-76
2022/09/26 03:39:50;;;;;;;5.35;3.00;;;;;;;;;;5041624;28;20025;-75
2022/09/26 03:42:16;;;;;;;6.80;3.03;;;;;;;;;;5043192;28;20512;-76
2022/09/26 03:44:42;;;;;;;3.42;2.95;;;;;;;;;;5043089;28;20122;-75
2022/09/26 03:47:09;;;;;;;6.70;3.80;;;;;;;;;;5031812;28;20049;-76
2022/09/26 03:49:35;;;;;;;7.00;3.40;;;;;;;;;;5042796;28;20036;-75
2022/09/26 03:52:02;;;;;;;6.75;3.28;;;;;;;;;;5043634;28;20344;-76
2022/09/26 03:54:29;;;;;;;12.73;4.35;;;;;;;;;;5043127;28;20017;-76
2022/09/26 03:56:55;;;;;;;8.98;3.85;;;;;;;;;;5042162;28;20462;-76
2022/09/26 03:59:21;;;;;;;7.15;3.75;;;;;;;;;;5041461;28;20113;-76
2022/09/26 04:01:47;;;;;;;8.35;3.88;;;;;;;;;;5040281;28;20036;-76
2022/09/26 04:04:15;;;;;;;6.38;4.22;;;;;;;;;;5024221;28;20447;-76
2022/09/26 04:06:43;;;;;;;7.95;4.43;;;;;;;;;;5042070;28;20210;-76
2022/09/26 04:09:10;;;;;;;4.95;3.95;;;;;;;;;;5042361;28;20373;-75
2022/09/26 04:11:36;;;;;;;9.07;4.28;;;;;;;;;;5042042;28;20623;-76
2022/09/26 04:14:02;;;;;;;10.57;4.85;;;;;;;;;;5040126;28;20023;-76
2022/09/26 04:16:29;;;;;;;10.80;4.45;;;;;;;;;;5025612;28;20413;-76
2022/09/26 04:18:56;;;;;;;7.63;4.80;;;;;;;;;;5025023;28;20025;-76
2022/09/26 04:21:22;;;;;;;8.95;4.68;;;;;;;;;;5024183;28;20026;-76
2022/09/26 04:23:49;;;;;;;6.57;4.78;;;;;;;;;;5024731;28;20378;-76
2022/09/26 04:26:19;;;;;;;10.10;4.85;;;;;;;;;;5033960;28;20512;-76
2022/09/26 04:28:48;;;;;;;7.28;4.47;;;;;;;;;;5029002;28;20036;-76
2022/09/26 04:31:14;;;;;;;9.13;4.97;;;;;;;;;;5027450;28;20040;-75
2022/09/26 04:33:40;;;;;;;10.23;4.72;;;;;;;;;;5028833;28;20088;-76
2022/09/26 04:36:10;;;;;;;7.45;4.47;;;;;;;;;;5029590;28;20040;-76
2022/09/26 04:38:38;;;;;;;12.50;5.22;;;;;;;;;;5010838;28;20025;-75
2022/09/26 04:41:04;;;;;;;8.45;5.38;;;;;;;;;;5026497;28;20025;-76
2022/09/26 04:43:30;;;;;;;11.18;6.03;;;;;;;;;;5036013;28;20021;-75
2022/09/26 04:45:57;;;;;;;14.20;5.72;;;;;;;;;;5041644;28;20016;-76
2022/09/26 04:48:24;;;;;;;13.82;5.72;;;;;;;;;;5041549;28;20545;-76
2022/09/26 04:50:50;;;;;;;9.80;5.40;;;;;;;;;;5042391;28;20098;-76
2022/09/26 04:53:18;;;;;;;11.68;6.55;;;;;;;;;;5024346;28;20116;-76
2022/09/26 04:55:47;;;;;;;7.68;5.32;;;;;;;;;;5041782;28;20209;-76
2022/09/26 04:58:14;;;;;;;10.48;6.47;;;;;;;;;;5041597;28;20032;-76
2022/09/26 05:00:44;;;;;;;12.50;5.82;;;;;;;;;;5041890;28;20025;-76
2022/09/26 05:03:12;;;;;;;9.45;5.78;;;;;;;;;;5039714;28;20172;-75
2022/09/26 05:05:40;;;;;;;10.55;6.15;;;;;;;;;;5041986;28;20051;-76
2022/09/26 05:08:06;;;;;;;9.88;6.00;;;;;;;;;;5041294;28;20024;-76
2022/09/26 05:10:33;;;;;;;6.97;5.80;;;;;;;;;;5041795;28;20047;-75
2022/09/26 05:12:59;;;;;;;10.35;6.28;;;;;;;;;;5042174;28;20096;-76
2022/09/26 05:15:26;;;;;;;6.47;5.22;;;;;;;;;;5039718;28;20075;-75
2022/09/26 05:17:56;;;;;;;9.45;5.38;;;;;;;;;;5042200;28;20104;-76
2022/09/26 05:20:23;;;;;;;11.85;5.07;;;;;;;;;;5041689;28;20086;-75
2022/09/26 05:22:49;;;;;;;10.95;5.65;;;;;;;;;;5041172;28;20067;-76
2022/09/26 05:28:00;;;;;;;9.18;5.25;;;;;;;;;;5038945;28;20072;-76
2022/09/26 05:30:30;;;;;;;8.90;5.32;;;;;;;;;;5041196;28;20032;-75
2022/09/26 05:32:57;;;;;;;9.43;5.35;;;;;;;;;;5041114;28;20032;-76
2022/09/26 05:35:23;;;;;;;11.07;6.22;;;;;;;;;;5041214;28;20018;-75
2022/09/26 05:37:58;;;;;;;11.25;6.47;;;;;;;;;;5022030;28;20279;-76
2022/09/26 05:43:10;;;;;;;15.52;8.05;;;;;;;;;;5040535;28;20052;-76
2022/09/26 05:45:36;;;;;;;15.68;7.47;;;;;;;;;;5040066;28;20107;-75
2022/09/26 05:48:03;;;;;;;14.02;8.02;;;;;;;;;;5040968;28;20045;-76
2022/09/26 05:50:29;;;;;;;20.73;8.30;;;;;;;;;;5041222;28;20044;-76
2022/09/26 05:53:02;;;;;;;16.42;7.53;;;;;;;;;;5040434;28;20516;-76
2022/09/26 05:55:30;;;;;;;14.32;7.22;;;;;;;;;;5040976;28;20052;-76
2022/09/26 05:58:00;;;;;;;15.45;7.10;;;;;;;;;;5039263;28;20033;-76
2022/09/26 06:00:26;;;;;;;14.02;7.63;;;;;;;;;;5041128;28;20032;-76
2022/09/26 06:02:56;;;;;;;12.00;7.30;;;;;;;;;;5040567;28;20031;-75
2022/09/26 06:05:25;;;;;;;12.23;6.78;;;;;;;;;;5040774;28;20379;-75
2022/09/26 06:07:52;;;;;;;13.55;7.65;;;;;;;;;;5040817;28;20032;-75
2022/09/26 06:10:19;;;;;;;12.25;7.60;;;;;;;;;;5040632;28;20086;-75
2022/09/26 06:12:45;;;;;;;12.77;7.30;;;;;;;;;;5029031;28;20635;-75
2022/09/26 06:15:11;;;;;;;9.98;6.93;;;;;;;;;;5040835;28;20435;-76
2022/09/26 06:17:37;;;;;;;12.30;7.43;;;;;;;;;;5040977;28;20100;-75
2022/09/26 06:20:04;;;;;;;16.88;8.10;;;;;;;;;;5040592;28;20043;-75
2022/09/26 06:22:32;;;;;;;11.32;7.55;;;;;;;;;;5038689;28;20048;-75
2022/09/26 06:24:59;;;;;;;15.85;7.70;;;;;;;;;;5040976;28;20465;-75
2022/09/26 06:27:25;;;;;;;14.73;8.65;;;;;;;;;;5040538;28;20543;-76
2022/09/26 06:29:51;;;;;;;15.88;8.38;;;;;;;;;;5040364;28;20298;-75
2022/09/26 06:32:17;;;;;;;14.23;8.25;;;;;;;;;;5039024;28;20131;-76
2022/09/26 06:34:43;;;;;;;16.85;9.30;;;;;;;;;;5040728;28;20094;-75
2022/09/26 06:37:10;;;;;;;14.80;8.75;;;;;;;;;;5040827;28;20036;-76
2022/09/26 06:39:36;;;;;;;15.63;9.48;;;;;;;;;;5040745;28;20215;-76
2022/09/26 06:42:04;;;;;;;14.75;9.95;;;;;;;;;;5044079;28;20082;-76
2022/09/26 06:44:31;;;;;;;13.80;9.65;;;;;;;;;;5044269;28;20036;-76
2022/09/26 06:46:59;;;;;;;15.40;8.48;;;;;;;;;;5042401;28;20025;-75
2022/09/26 06:49:26;;;;;;;15.95;9.63;;;;;;;;;;5043840;28;20017;-75
2022/09/26 06:51:52;;;;;;;16.30;9.25;;;;;;;;;;5043784;28;20059;-76
2022/09/26 06:54:18;;;;;;;13.85;8.90;;;;;;;;;;5042795;28;20024;-75
2022/09/26 06:56:45;;;;;;;13.30;9.48;;;;;;;;;;5044135;28;20025;-76
2022/09/26 06:59:11;;;;;;;15.00;10.70;;;;;;;;;;5043952;28;20070;-75
2022/09/26 07:01:38;;;;;;;14.23;9.73;;;;;;;;;;5044260;28;20470;-74
2022/09/26 07:04:04;;;;;;;13.20;10.13;;;;;;;;;;5042605;28;20313;-73
2022/09/26 07:06:30;;;;;;;14.88;10.07;;;;;;;;;;5043864;28;20028;-74
2022/09/26 07:08:57;;;;;;;13.85;10.57;;;;;;;;;;5043847;28;20049;-75
2022/09/26 07:11:24;;;;;;;11.90;9.88;;;;;;;;;;5043373;28;20225;-75
2022/09/26 07:13:51;;;;;;;18.20;11.68;;;;;;;;;;5042514;28;20212;-74
2022/09/26 07:16:18;;;;;;;11.25;10.15;;;;;;;;;;5043474;28;20063;-75
2022/09/26 07:18:44;;;;;;;14.20;10.82;;;;;;;;;;5044230;28;20022;-74
2022/09/26 07:21:10;;;;;;;16.08;10.40;;;;;;;;;;5043495;28;20503;-74
2022/09/26 07:23:36;;;;;;;13.18;10.40;;;;;;;;;;5035945;28;20024;-74
2022/09/26 07:26:02;;;;;;;14.68;10.57;;;;;;;;;;5043604;28;20755;-74
2022/09/26 07:28:30;;;;;;;16.58;11.07;;;;;;;;;;5042405;28;20025;-73
2022/09/26 07:30:56;;;;;;;13.55;10.60;;;;;;;;;;5043507;28;20463;-75
2022/09/26 07:33:23;;;;;;;13.30;10.70;;;;;;;;;;5043658;28;20051;-75
2022/09/26 07:35:49;;;;;;;14.52;10.70;;;;;;;;;;5043692;28;20105;-75
2022/09/26 07:38:16;;;;;;;12.07;10.60;;;;;;;;;;5043206;28;20013;-75
2022/09/26 07:40:42;;;;;;;11.30;8.18;;;;;;;;;;5041519;28;20464;-74
2022/09/26 07:43:12;;;;;;;7.78;5.50;;;;;;;;;;5043302;28;20017;-74
2022/09/26 07:51:10;;;;;;;5.43;4.00;;;;;;;;;;5041621;28;20543;-74
2022/09/26 07:53:39;;;;;;;6.15;3.58;;;;;;;;;;5042573;28;20076;-75
2022/09/26 07:56:08;;;;;;;5.63;4.20;;;;;;;;;;5042803;28;20124;-75
2022/09/26 07:58:35;;;;;;;5.15;4.18;;;;;;;;;;5043235;28;20586;-75
2022/09/26 08:01:02;;;;;;;5.70;4.32;;;;;;;;;;5041454;28;20032;-75
2022/09/26 08:03:28;;;;;;;5.68;4.70;;;;;;;;;;5032918;28;20340;-75
2022/09/26 08:06:02;;;;;;;6.70;5.30;;;;;;;;;;5043125;28;20528;-75
2022/09/26 08:08:29;;;;;;;10.32;5.75;;;;;;;;;;5042520;28;20499;-76
2022/09/26 08:10:56;;;;;;;6.78;5.18;;;;;;;;;;5041176;28;20500;-77
2022/09/26 08:13:24;;;;;;;7.88;4.90;;;;;;;;;;5043619;28;20553;-77
2022/09/26 08:15:50;;;;;;;7.35;5.30;;;;;;;;;;5042695;28;20025;-76
2022/09/26 08:18:16;;;;;;;6.32;4.72;;;;;;;;;;5025350;28;20120;-75
2022/09/26 08:20:45;;;;;;;10.35;5.47;;;;;;;;;;5042528;28;20053;-75
2022/09/26 08:23:13;;;;;;;8.82;4.88;;;;;;;;;;5025131;28;20031;-75
2022/09/26 08:25:39;;;;;;;8.00;4.97;;;;;;;;;;5040762;28;20031;-75
2022/09/26 08:28:06;;;;;;;6.93;5.20;;;;;;;;;;5042191;28;20028;-74
2022/09/26 08:30:33;;;;;;;6.85;5.35;;;;;;;;;;5042364;28;20029;-74
2022/09/26 08:33:00;;;;;;;10.73;6.15;;;;;;;;;;5041034;28;20009;-75
2022/09/26 08:35:27;;;;;;;9.48;6.93;;;;;;;;;;5042147;28;20020;-76
2022/09/26 08:37:53;;;;;;;12.90;7.20;;;;;;;;;;5042242;28;20032;-75
2022/09/26 08:40:38;;;;;;;8.48;6.32;;;;;;;;;;5039271;28;20025;-76
2022/09/26 08:43:29;;;;;;;8.23;6.55;;;;;;;;;;5026444;28;20064;-76
2022/09/26 08:49:24;;;;;;;9.57;6.68;;;;;;;;;;4980854;28;20064;-76
2022/09/26 08:51:52;;;;;;;6.60;6.00;;;;;;;;;;5039077;28;20216;-77
2022/09/26 08:54:24;;;;;;;6.40;5.53;;;;;;;;;;5036446;28;20308;-77
2022/09/26 08:56:52;;;;;;;9.80;6.43;;;;;;;;;;5041523;28;20386;-77
2022/09/26 08:59:31;;;;;;;6.30;5.68;;;;;;;;;;5042116;28;20025;-76
2022/09/26 09:02:00;;;;;;;10.63;6.20;;;;;;;;;;5039504;28;20060;-76
2022/09/26 09:04:34;;;;;;;8.98;6.35;;;;;;;;;;5041367;28;20049;-76
2022/09/26 09:07:04;;;;;;;8.00;6.43;;;;;;;;;;5040597;28;20022;-77
2022/09/26 09:09:30;;;;;;;9.57;6.88;;;;;;;;;;5041423;28;20633;-76
2022/09/26 09:12:03;;;;;;;8.57;7.22;;;;;;;;;;5039760;28;20135;-77
2022/09/26 09:14:48;;;;;;;8.68;7.15;;;;;;;;;;5038316;28;20013;-76
2022/09/26 09:17:14;;;;;;;10.77;7.30;;;;;;;;;;5037214;28;20037;-77
2022/09/26 09:19:49;;;;;;;7.50;6.20;;;;;;;;;;5041439;28;20078;-77
2022/09/26 09:22:25;;;;;;;5.38;4.65;;;;;;;;;;5041181;28;20049;-77
2022/09/26 09:25:04;;;;;;;5.68;3.90;;;;;;;;;;5039976;28;20086;-77
2022/09/26 09:27:30;;;;;;;5.80;3.90;;;;;;;;;;5024034;28;20441;-76
2022/09/26 09:30:08;;;;;;;4.75;3.40;;;;;;;;;;5041595;28;20107;-77
2022/09/26 09:32:41;;;;;;;7.22;3.47;;;;;;;;;;5041089;28;20017;-76
2022/09/26 09:35:12;;;;;;;8.18;4.38;;;;;;;;;;5041100;28;20108;-77
2022/09/26 09:37:48;;;;;;;5.22;4.35;;;;;;;;;;5039677;28;20017;-77
2022/09/26 09:40:20;;;;;;;6.40;4.20;;;;;;;;;;5023646;28;20169;-76
2022/09/26 09:43:07;;;;;;;5.20;4.07;;;;;;;;;;5040644;28;20028;-76
2022/09/26 09:45:50;;;;;;;7.15;4.38;;;;;;;;;;5040973;28;20021;-77
2022/09/26 09:48:16;;;;;;;6.22;4.18;;;;;;;;;;5037675;28;20119;-77
2022/09/26 09:50:54;;;;;;;6.93;4.15;;;;;;;;;;5029468;28;20535;-76
2022/09/26 09:53:23;;;;;;;7.38;4.10;;;;;;;;;;5040771;28;20032;-76
2022/09/26 09:56:07;;;;;;;7.15;4.18;;;;;;;;;;5039029;28;20028;-76
2022/09/26 09:58:52;;;;;;;7.28;3.70;;;;;;;;;;5040526;28;20017;-76
2022/09/26 10:01:24;;;;;;;5.60;3.08;;;;;;;;;;5035351;28;20032;-76
2022/09/26 10:04:04;;;;;;;6.85;3.97;;;;;;;;;;5040464;28;20499;-76
2022/09/26 10:06:31;;;;;;;7.43;4.13;;;;;;;;;;5023358;28;20055;-76
2022/09/26 10:09:02;;;;;;;5.43;3.20;;;;;;;;;;5040884;28;20017;-76
2022/09/26 10:11:28;;;;;;;5.22;3.90;;;;;;;;;;5039382;28;20036;-76
2022/09/26 10:13:56;;;;;;;6.13;3.92;;;;;;;;;;5040132;28;20114;-76
2022/09/26 10:16:23;;;;;;;13.05;4.55;;;;;;;;;;5040606;28;20032;-76
2022/09/26 10:18:55;;;;;;;7.65;4.95;;;;;;;;;;5040843;28;20416;-76
2022/09/26 10:21:25;;;;;;;12.55;5.82;;;;;;;;;;5041034;28;20405;-76
2022/09/26 10:23:52;;;;;;;10.40;4.93;;;;;;;;;;5039080;28;20474;-77
2022/09/26 10:26:33;;;;;;;15.52;5.20;;;;;;;;;;5033376;28;20059;-76
2022/09/26 10:29:01;;;;;;;11.27;4.55;;;;;;;;;;5040447;28;20108;-76
2022/09/26 10:31:28;;;;;;;14.98;6.03;;;;;;;;;;5039217;28;20032;-76
2022/09/26 10:33:59;;;;;;;12.13;5.10;;;;;;;;;;5040258;28;20029;-76
2022/09/26 10:36:30;;;;;;;11.05;5.82;;;;;;;;;;5040322;28;20059;-76
2022/09/26 10:41:44;;;;;;;12.07;4.85;;;;;;;;;;5037656;28;20127;-76
2022/09/26 10:44:21;;;;;;;15.63;5.13;;;;;;;;;;5039146;28;20172;-77
2022/09/26 10:46:50;;;;;;;16.23;4.60;;;;;;;;;;5037883;28;20028;-75
2022/09/26 10:49:17;;;;;;;13.85;4.55;;;;;;;;;;5040755;28;20028;-76
2022/09/26 10:51:49;;;;;;;11.30;3.60;;;;;;;;;;5039970;28;20063;-77
2022/09/26 10:54:17;;;;;;;13.88;4.10;;;;;;;;;;5040487;28;20021;-75
2022/09/26 10:56:48;;;;;;;9.98;4.50;;;;;;;;;;5040026;28;20680;-75
2022/09/26 10:59:16;;;;;;;11.65;4.40;;;;;;;;;;5039027;28;20033;-76
2022/09/26 11:01:45;;;;;;;12.07;4.35;;;;;;;;;;5040408;28;20087;-76
2022/09/26 11:05:55;;;;;;;12.30;3.92;;;;;;;;;;5033325;28;20013;-76
2022/09/26 11:07:01;;;;;;;8.95;3.80;;;;;;;;;;5040419;28;20052;-76
2022/09/26 11:09:28;;;;;;;15.98;4.72;;;;;;;;;;5039235;28;20033;-75
2022/09/26 11:11:54;;;;;;;13.82;4.43;;;;;;;;;;5040140;28;20606;-76
2022/09/26 11:14:27;;;;;;;12.30;4.15;;;;;;;;;;5040355;28;20056;-76
2022/09/26 11:16:55;;;;;;;7.63;3.30;;;;;;;;;;5038454;28;20108;-76
2022/09/26 11:19:34;;;;;;;9.82;4.18;;;;;;;;;;5040366;28;20024;-77
2022/09/26 11:22:06;;;;;;;8.98;3.10;;;;;;;;;;5022802;28;20037;-76
2022/09/26 11:24:36;;;;;;;6.55;3.75;;;;;;;;;;5039456;28;20539;-76
2022/09/26 11:27:11;;;;;;;7.35;3.30;;;;;;;;;;5041989;28;20786;-76
2022/09/26 11:29:51;;;;;;;9.63;3.85;;;;;;;;;;5036009;28;20039;-76
2022/09/26 11:32:17;;;;;;;7.47;3.40;;;;;;;;;;5043604;28;20061;-75
2022/09/26 11:34:44;;;;;;;11.30;3.83;;;;;;;;;;5043318;28;20064;-76
2022/09/26 11:37:17;;;;;;;11.35;3.90;;;;;;;;;;5032047;28;20063;-75
2022/09/26 11:39:53;;;;;;;11.38;4.15;;;;;;;;;;5043313;28;20548;-76
2022/09/26 11:42:33;;;;;;;10.63;3.67;;;;;;;;;;5019004;28;20017;-76
2022/09/26 11:45:03;;;;;;;15.18;4.53;;;;;;;;;;5041589;28;20025;-77
2022/09/26 11:47:57;;;;;;;7.40;3.53;;;;;;;;;;5043010;28;20033;-76
2022/09/26 11:50:26;;;;;;;7.93;3.75;;;;;;;;;;5036705;28;20052;-76
2022/09/26 11:53:01;;;;;;;11.38;4.45;;;;;;;;;;5041606;28;20636;-76
2022/09/26 11:55:34;;;;;;;14.98;4.57;;;;;;;;;;5044086;28;20579;-75
2022/09/26 11:58:21;;;;;;;15.70;4.03;;;;;;;;;;5043022;28;20021;-76
2022/09/26 12:00:50;;;;;;;7.03;3.80;;;;;;;;;;5042159;28;20112;-76
2022/09/26 12:03:26;;;;;;;8.88;3.80;;;;;;;;;;5043347;28;20601;-77
2022/09/26 12:06:03;;;;;;;8.10;3.75;;;;;;;;;;5043212;28;20063;-76
2022/09/26 12:08:50;;;;;;;7.10;3.58;;;;;;;;;;5021044;28;20505;-76
2022/09/26 12:11:36;;;;;;;8.07;4.03;;;;;;;;;;5042901;28;20060;-77
2022/09/26 12:14:25;;;;;;;9.38;3.47;;;;;;;;;;5042725;28;20721;-76
2022/09/26 12:16:54;;;;;;;6.35;3.22;;;;;;;;;;5008111;28;20489;-76
2022/09/26 12:19:56;;;;;;;6.80;3.15;;;;;;;;;;5042656;28;20036;-76
2022/09/26 12:22:41;;;;;;;10.90;3.00;;;;;;;;;;4976203;28;20482;-76
2022/09/26 12:25:34;;;;;;;9.38;3.00;;;;;;;;;;5036366;28;20116;-78
2022/09/26 12:28:19;;;;;;;7.03;2.88;;;;;;;;;;5040025;28;20200;-76
2022/09/26 12:30:48;;;;;;;6.30;2.90;;;;;;;;;;5042665;28;20045;-76
2022/09/26 12:33:29;;;;;;;5.72;2.40;;;;;;;;;;5045735;28;20025;-78
2022/09/26 12:35:55;;;;;;;8.52;2.95;;;;;;;;;;5045201;28;20072;-78
2022/09/26 12:38:24;;;;;;;6.97;2.85;;;;;;;;;;5040458;28;20084;-77
2022/09/26 12:40:51;;;;;;;9.77;3.17;;;;;;;;;;5024569;28;20021;-77
2022/09/26 12:43:30;;;;;;;9.05;2.78;;;;;;;;;;5042539;28;20013;-79
2022/09/26 12:46:15;;;;;;;9.00;3.08;;;;;;;;;;5042584;28;20464;-78
2022/09/26 12:48:41;;;;;;;4.20;2.55;;;;;;;;;;5037473;28;20053;-79
2022/09/26 12:51:27;;;;;;;6.25;3.00;;;;;;;;;;5040767;28;20029;-79
2022/09/26 12:54:01;;;;;;;7.72;2.92;;;;;;;;;;5024461;28;20415;-79
2022/09/26 12:56:32;;;;;;;7.18;2.95;;;;;;;;;;5038422;28;20105;-79
2022/09/26 12:59:06;;;;;;;4.22;2.67;;;;;;;;;;5024327;28;20024;-77
2022/09/26 13:01:46;;;;;;;5.53;3.22;;;;;;;;;;5038201;28;20015;-77
2022/09/26 13:04:23;;;;;;;7.35;3.50;;;;;;;;;;5041759;28;20028;-76
2022/09/26 13:06:57;;;;;;;9.82;3.20;;;;;;;;;;5039951;28;20021;-77
2022/09/26 13:09:32;;;;;;;9.02;2.75;;;;;;;;;;5041907;28;20437;-75
2022/09/26 13:12:14;;;;;;;;;;;;;;;;;;;;;
2022/09/26 13:15:22;;;;;;;8.48;2.97;;;;;;;;;;5034768;28;20025;-78
2022/09/26 13:21:01;;;;;;;9.13;2.85;;;;;;;;;;5029426;28;20382;-78
2022/09/26 13:26:44;;;;;;;6.63;2.95;;;;;;;;;;5022208;28;20029;-78
2022/09/26 13:32:24;;;;;;;9.35;3.13;;;;;;;;;;4989930;28;20136;-78
2022/09/26 13:34:59;;;;;;;8.85;2.97;;;;;;;;;;5029366;28;20480;-79
2022/09/26 13:37:29;;;;;;;11.55;3.42;;;;;;;;;;5041328;28;20078;-80
2022/09/26 13:40:19;;;;;;;9.55;2.78;;;;;;;;;;5027261;28;20095;-78
2022/09/26 13:43:23;;;;;;;9.57;2.80;;;;;;;;;;5036623;28;20358;-77
2022/09/26 13:46:09;;;;;;;9.77;2.95;;;;;;;;;;5002678;28;20816;-77
2022/09/26 13:49:11;;;;;;;;;;;;;;;;;;;;;
2022/09/26 13:54:46;;;;;;;7.80;2.67;;;;;;;;;;5035932;28;20167;-76
2022/09/26 13:57:35;;;;;;;7.43;2.75;;;;;;;;;;5031971;28;20035;-77
2022/09/26 14:00:39;;;;;;;5.78;3.05;;;;;;;;;;5026401;28;20393;-77
2022/09/26 14:03:08;;;;;;;9.23;3.08;;;;;;;;;;5036642;28;20461;-78
2022/09/26 14:05:44;;;;;;;8.93;3.10;;;;;;;;;;5033547;28;20075;-78
2022/09/26 14:11:29;;;;;;;6.55;3.00;;;;;;;;;;5040299;28;20074;-78
2022/09/26 14:14:17;;;;;;;4.55;2.65;;;;;;;;;;5041035;28;20050;-78
2022/09/26 14:16:43;;;;;;;5.65;2.70;;;;;;;;;;5034023;28;20052;-76
2022/09/26 14:19:11;;;;;;;4.55;2.35;;;;;;;;;;5040678;28;20092;-77
2022/09/26 14:21:45;;;;;;;9.60;3.10;;;;;;;;;;5032814;28;20025;-79
2022/09/26 14:24:22;;;;;;;8.48;2.65;;;;;;;;;;5039319;28;20029;-78
2022/09/26 14:26:57;;;;;;;4.82;2.50;;;;;;;;;;5034497;28;20408;-78
2022/09/26 14:29:29;;;;;;;3.97;2.40;;;;;;;;;;5040519;28;20047;-80
2022/09/26 14:32:00;;;;;;;5.25;2.40;;;;;;;;;;5028319;28;20487;-79
2022/09/26 14:34:29;;;;;;;5.60;2.20;;;;;;;;;;5040156;28;20017;-78
2022/09/26 14:36:57;;;;;;;9.57;2.30;;;;;;;;;;5039234;28;20761;-79
2022/09/26 14:39:23;;;;;;;3.55;1.90;;;;;;;;;;5040277;28;20064;-78
2022/09/26 14:41:50;;;;;;;6.07;2.47;;;;;;;;;;5040618;28;20112;-77
2022/09/26 14:44:18;;;;;;;7.63;2.47;;;;;;;;;;5040149;28;20465;-77
2022/09/26 14:46:50;;;;;;;5.57;2.08;;;;;;;;;;5033053;28;20064;-75
2022/09/26 14:49:27;;;;;;;5.70;2.17;;;;;;;;;;5039249;28;20044;-77
2022/09/26 14:51:59;;;;;;;4.47;2.00;;;;;;;;;;5034710;28;20124;-77
2022/09/26 14:54:30;;;;;;;8.52;2.70;;;;;;;;;;5041342;28;20055;-77
2022/09/26 14:57:01;;;;;;;6.85;2.53;;;;;;;;;;5034665;28;20033;-77
2022/09/26 14:59:34;;;;;;;3.03;2.03;;;;;;;;;;5040124;28;20021;-78
2022/09/26 15:02:19;;;;;;;8.40;2.42;;;;;;;;;;5042681;28;20104;-75
2022/09/26 15:04:51;;;;;;;6.13;2.40;;;;;;;;;;5038428;28;20047;-78
2022/09/26 15:07:20;;;;;;;6.65;2.80;;;;;;;;;;5044195;28;20032;-79
2022/09/26 15:09:46;;;;;;;4.75;2.20;;;;;;;;;;5037826;28;20332;-76
2022/09/26 15:12:28;;;;;;;;;;;;;;;;;;;;;
2022/09/26 15:15:05;;;;;;;4.55;2.10;;;;;;;;;;5035134;28;20041;-77
2022/09/26 15:17:33;;;;;;;6.45;2.47;;;;;;;;;;5043126;28;20032;-77
2022/09/26 15:20:10;;;;;;;9.25;2.53;;;;;;;;;;5043751;28;20025;-78
2022/09/26 15:22:39;;;;;;;6.78;2.40;;;;;;;;;;5043906;28;20372;-77
2022/09/26 15:25:22;;;;;;;7.45;2.92;;;;;;;;;;5024786;28;20048;-78
2022/09/26 15:27:57;;;;;;;10.30;2.65;;;;;;;;;;5041401;28;20017;-79
2022/09/26 15:30:27;;;;;;;7.13;2.42;;;;;;;;;;5043433;28;20017;-77
2022/09/26 15:32:57;;;;;;;5.75;2.67;;;;;;;;;;5043780;28;20055;-76
2022/09/26 15:35:25;;;;;;;5.50;2.42;;;;;;;;;;5041971;28;20021;-78
2022/09/26 15:38:08;;;;;;;;;;;;;;;;;;;;;
2022/09/26 15:40:37;;;;;;;6.68;3.03;;;;;;;;;;5043329;28;20029;-79